createdAt,value
2018-05-07T00:00:24.780Z,0
2018-05-07T00:02:26.290Z,0
2018-05-07T00:04:27.780Z,0
2018-05-07T00:06:29.245Z,0
2018-05-07T00:08:30.738Z,0
2018-05-07T00:10:32.178Z,0
2018-05-07T00:12:33.582Z,0
2018-05-07T00:14:35.014Z,0
2018-05-07T00:16:36.433Z,0
2018-05-07T00:18:37.857Z,0
2018-05-07T00:20:39.293Z,0
2018-05-07T00:22:40.703Z,0
2018-05-07T00:24:42.127Z,0
2018-05-07T00:26:43.555Z,0
2018-05-07T00:28:44.982Z,0
2018-05-07T00:30:46.405Z,0
2018-05-07T00:32:47.833Z,0
2018-05-07T00:34:49.260Z,0
2018-05-07T00:36:50.700Z,0
2018-05-07T00:38:52.201Z,0
2018-05-07T00:40:53.670Z,0
2018-05-07T00:42:55.100Z,0
2018-05-07T00:44:56.521Z,0
2018-05-07T00:46:57.948Z,0
2018-05-07T00:48:59.371Z,0
2018-05-07T00:51:00.794Z,0
2018-05-07T00:53:02.212Z,0
2018-05-07T00:55:03.640Z,0
2018-05-07T00:57:05.067Z,0
2018-05-07T00:59:06.491Z,0
2018-05-07T01:01:07.914Z,0
2018-05-07T01:03:09.338Z,0
2018-05-07T01:05:10.762Z,0
2018-05-07T01:07:12.185Z,0
2018-05-07T01:09:13.611Z,0
2018-05-07T01:11:15.033Z,0
2018-05-07T01:13:16.459Z,0
2018-05-07T01:15:17.875Z,0
2018-05-07T01:17:19.300Z,0
2018-05-07T01:19:20.739Z,0
2018-05-07T01:21:22.144Z,0
2018-05-07T01:23:23.570Z,0
2018-05-07T01:25:24.994Z,0
2018-05-07T01:27:26.418Z,0
2018-05-07T01:29:27.835Z,0
2018-05-07T01:31:29.259Z,0
2018-05-07T01:33:30.686Z,0
2018-05-07T01:35:32.109Z,0
2018-05-07T01:37:33.532Z,0
2018-05-07T01:39:34.957Z,0
2018-05-07T01:41:36.384Z,0
2018-05-07T01:43:37.807Z,0
2018-05-07T01:45:39.230Z,0
2018-05-07T01:47:40.653Z,0
2018-05-07T01:49:42.079Z,0
2018-05-07T01:51:43.500Z,0
2018-05-07T01:53:44.929Z,0
2018-05-07T01:55:46.349Z,0
2018-05-07T01:57:47.772Z,0
2018-05-07T01:59:49.195Z,0
2018-05-07T02:01:50.620Z,0
2018-05-07T02:03:52.044Z,0
2018-05-07T02:05:53.461Z,0
2018-05-07T02:07:54.908Z,0
2018-05-07T02:09:56.328Z,0
2018-05-07T02:11:57.745Z,0
2018-05-07T02:13:59.172Z,0
2018-05-07T02:16:00.594Z,0
2018-05-07T02:18:02.014Z,0
2018-05-07T02:20:03.438Z,0
2018-05-07T02:22:04.890Z,0
2018-05-07T02:24:06.314Z,0
2018-05-07T02:26:07.733Z,0
2018-05-07T02:28:09.159Z,0
2018-05-07T02:30:10.580Z,0
2018-05-07T02:32:12.003Z,0
2018-05-07T02:34:13.426Z,0
2018-05-07T02:36:14.849Z,0
2018-05-07T02:38:16.277Z,0
2018-05-07T02:40:17.697Z,0
2018-05-07T02:42:19.115Z,0
2018-05-07T02:44:20.539Z,0
2018-05-07T02:46:21.961Z,0
2018-05-07T02:48:23.378Z,0
2018-05-07T02:50:24.800Z,0
2018-05-07T02:52:26.223Z,0
2018-05-07T02:54:27.643Z,0
2018-05-07T02:56:29.061Z,0
2018-05-07T02:58:30.551Z,0
2018-05-07T03:00:31.989Z,0
2018-05-07T03:02:33.442Z,0
2018-05-07T03:04:34.906Z,0
2018-05-07T03:06:36.328Z,0
2018-05-07T03:08:37.750Z,0
2018-05-07T03:10:39.164Z,0
2018-05-07T03:12:40.709Z,0
2018-05-07T03:14:42.145Z,0
2018-05-07T03:16:43.569Z,0
2018-05-07T03:18:44.991Z,0
2018-05-07T03:20:46.414Z,0
2018-05-07T03:22:47.831Z,0
2018-05-07T03:24:49.351Z,0
2018-05-07T03:26:50.686Z,0
2018-05-07T03:28:52.107Z,0
2018-05-07T03:30:53.528Z,0
2018-05-07T03:32:54.945Z,0
2018-05-07T03:34:56.368Z,0
2018-05-07T03:36:57.883Z,0
2018-05-07T03:38:59.306Z,0
2018-05-07T03:41:00.728Z,0
2018-05-07T03:43:02.150Z,0
2018-05-07T03:45:03.571Z,0
2018-05-07T03:47:04.994Z,0
2018-05-07T03:49:06.428Z,0
2018-05-07T03:51:07.855Z,0
2018-05-07T03:53:09.272Z,0
2018-05-07T03:55:10.696Z,0
2018-05-07T03:57:12.121Z,0
2018-05-07T03:59:13.541Z,0
2018-05-07T04:01:14.962Z,0
2018-05-07T04:03:16.384Z,0
2018-05-07T04:05:17.807Z,0
2018-05-07T04:07:19.269Z,0
2018-05-07T04:09:20.648Z,0
2018-05-07T04:11:22.067Z,0
2018-05-07T04:13:23.494Z,0
2018-05-07T04:15:24.932Z,0
2018-05-07T04:17:26.362Z,0
2018-05-07T04:19:27.789Z,5
2018-05-07T04:21:29.278Z,5
2018-05-07T04:23:30.712Z,5
2018-05-07T04:25:32.128Z,5
2018-05-07T04:27:33.576Z,5
2018-05-07T04:29:35.000Z,5
2018-05-07T04:31:36.421Z,5
2018-05-07T04:33:37.892Z,5
2018-05-07T04:35:39.271Z,5
2018-05-07T04:37:40.688Z,5
2018-05-07T04:39:42.115Z,5
2018-05-07T04:41:43.534Z,5
2018-05-07T04:43:44.974Z,5
2018-05-07T04:45:46.396Z,5
2018-05-07T04:47:47.820Z,5
2018-05-07T04:49:49.245Z,10
2018-05-07T04:51:50.670Z,10
2018-05-07T04:53:52.092Z,10
2018-05-07T04:55:53.520Z,10
2018-05-07T04:57:54.988Z,10
2018-05-07T04:59:56.372Z,10
2018-05-07T05:01:57.792Z,10
2018-05-07T05:03:59.220Z,10
2018-05-07T05:06:00.653Z,10
2018-05-07T05:08:02.079Z,10
2018-05-07T05:10:03.510Z,10
2018-05-07T05:12:04.933Z,10
2018-05-07T05:14:06.359Z,15
2018-05-07T05:16:07.773Z,15
2018-05-07T05:18:09.204Z,15
2018-05-07T05:20:10.641Z,20
2018-05-07T05:22:12.063Z,15
2018-05-07T05:24:13.501Z,20
2018-05-07T05:26:14.919Z,20
2018-05-07T05:28:16.343Z,20
2018-05-07T05:30:17.796Z,20
2018-05-07T05:32:19.217Z,25
2018-05-07T05:34:20.645Z,40
2018-05-07T05:36:22.066Z,65
2018-05-07T05:38:23.497Z,60
2018-05-07T05:40:24.920Z,50
2018-05-07T05:42:26.348Z,90
2018-05-07T05:44:27.777Z,85
2018-05-07T05:46:29.233Z,120
2018-05-07T05:48:30.677Z,115
2018-05-07T05:50:32.122Z,90
2018-05-07T05:52:33.602Z,150
2018-05-07T05:54:35.088Z,150
2018-05-07T05:56:36.536Z,75
2018-05-07T05:58:37.955Z,70
2018-05-07T06:00:39.382Z,95
2018-05-07T06:02:40.811Z,100
2018-05-07T06:04:42.239Z,230
2018-05-07T06:06:43.667Z,120
2018-05-07T06:08:45.097Z,125
2018-05-07T06:10:46.526Z,190
2018-05-07T06:12:47.968Z,670
2018-05-07T06:14:49.519Z,245
2018-05-07T06:16:50.817Z,460
2018-05-07T06:18:52.250Z,975
2018-05-07T06:20:53.690Z,1175
2018-05-07T06:22:55.123Z,1175
2018-05-07T06:24:56.558Z,1220
2018-05-07T06:26:58.000Z,1250
2018-05-07T06:28:59.439Z,1100
2018-05-07T06:31:00.877Z,1010
2018-05-07T06:33:02.324Z,735
2018-05-07T06:35:03.766Z,1110
2018-05-07T06:37:05.203Z,1215
2018-05-07T06:39:06.645Z,1270
2018-05-07T06:41:08.091Z,1310
2018-05-07T06:43:09.528Z,1110
2018-05-07T06:45:10.981Z,755
2018-05-07T06:47:12.427Z,1365
2018-05-07T06:49:13.874Z,1265
2018-05-07T06:51:15.332Z,615
2018-05-07T06:53:16.730Z,335
2018-05-07T06:55:18.383Z,690
2018-05-07T06:57:19.833Z,490
2018-05-07T06:59:21.279Z,1055
2018-05-07T07:01:22.727Z,1170
2018-05-07T07:03:24.169Z,675
2018-05-07T07:05:25.611Z,170
2018-05-07T07:07:27.066Z,165
2018-05-07T07:09:28.511Z,640
2018-05-07T07:11:32.950Z,225
2018-05-07T07:13:34.543Z,435
2018-05-07T07:15:36.374Z,430
2018-05-07T07:17:37.940Z,225
2018-05-07T07:19:39.404Z,260
2018-05-07T07:21:41.261Z,125
2018-05-07T07:23:42.773Z,75
2018-05-07T07:25:44.710Z,50
2018-05-07T07:28:27.150Z,45
2018-05-07T07:30:31.601Z,45
2018-05-07T07:32:33.031Z,45
2018-05-07T07:34:34.464Z,50
2018-05-07T07:36:35.899Z,50
2018-05-07T07:38:37.330Z,50
2018-05-07T07:40:38.766Z,50
2018-05-07T07:42:40.199Z,50
2018-05-07T07:44:41.632Z,50
2018-05-07T07:46:43.135Z,50
2018-05-07T07:49:25.608Z,55
2018-05-07T07:51:27.025Z,55
2018-05-07T07:53:28.500Z,60
2018-05-07T07:55:29.894Z,60
2018-05-07T07:57:31.326Z,60
2018-05-07T07:59:32.810Z,65
2018-05-07T08:01:34.355Z,65
2018-05-07T08:03:35.818Z,70
2018-05-07T08:05:37.347Z,75
2018-05-07T08:07:38.883Z,80
2018-05-07T08:09:40.397Z,85
2018-05-07T08:11:41.928Z,85
2018-05-07T08:13:43.448Z,90
2018-05-07T08:15:44.990Z,95
2018-05-07T08:17:46.468Z,95
2018-05-07T08:19:48.039Z,95
2018-05-07T08:21:49.569Z,100
2018-05-07T08:23:51.115Z,100
2018-05-07T08:25:52.678Z,100
2018-05-07T08:27:54.204Z,105
2018-05-07T08:29:55.779Z,105
2018-05-07T08:31:57.247Z,105
2018-05-07T08:33:58.751Z,110
2018-05-07T08:36:00.185Z,110
2018-05-07T08:38:01.623Z,110
2018-05-07T08:40:03.060Z,110
2018-05-07T08:42:04.565Z,115
2018-05-07T08:44:05.932Z,115
2018-05-07T08:46:07.363Z,115
2018-05-07T08:48:08.804Z,115
2018-05-07T08:50:10.427Z,115
2018-05-07T08:52:11.896Z,120
2018-05-07T08:54:13.387Z,120
2018-05-07T08:56:14.912Z,120
2018-05-07T08:58:16.342Z,125
2018-05-07T09:00:17.864Z,125
2018-05-07T09:02:19.299Z,125
2018-05-07T09:04:20.739Z,125
2018-05-07T09:06:22.173Z,125
2018-05-07T09:08:23.620Z,125
2018-05-07T09:10:25.059Z,125
2018-05-07T09:12:26.499Z,125
2018-05-07T09:14:27.938Z,125
2018-05-07T09:16:29.375Z,125
2018-05-07T09:18:30.814Z,130
2018-05-07T09:20:32.250Z,130
2018-05-07T09:22:33.692Z,130
2018-05-07T09:24:35.128Z,130
2018-05-07T09:26:36.564Z,135
2018-05-07T09:28:38.004Z,135
2018-05-07T09:30:39.441Z,135
2018-05-07T09:32:40.879Z,135
2018-05-07T09:34:42.322Z,140
2018-05-07T09:36:43.767Z,140
2018-05-07T09:38:45.207Z,140
2018-05-07T09:40:46.647Z,140
2018-05-07T09:42:48.105Z,140
2018-05-07T09:44:49.524Z,145
2018-05-07T09:46:50.964Z,145
2018-05-07T09:48:52.406Z,145
2018-05-07T09:50:53.843Z,145
2018-05-07T09:52:55.282Z,145
2018-05-07T09:54:56.725Z,145
2018-05-07T09:56:58.242Z,145
2018-05-07T09:58:59.712Z,150
2018-05-07T10:01:01.114Z,150
2018-05-07T10:03:02.557Z,150
2018-05-07T10:05:04.004Z,150
2018-05-07T10:07:05.446Z,150
2018-05-07T10:09:06.891Z,150
2018-05-07T10:11:08.331Z,150
2018-05-07T10:13:09.773Z,150
2018-05-07T10:15:11.216Z,150
2018-05-07T10:17:12.657Z,150
2018-05-07T10:19:14.104Z,150
2018-05-07T10:21:15.544Z,150
2018-05-07T10:23:16.984Z,150
2018-05-07T10:25:18.428Z,150
2018-05-07T10:27:19.867Z,145
2018-05-07T10:29:21.315Z,145
2018-05-07T10:31:22.752Z,140
2018-05-07T10:33:24.197Z,140
2018-05-07T10:35:25.724Z,135
2018-05-07T10:37:27.080Z,135
2018-05-07T10:39:28.523Z,135
2018-05-07T10:41:29.966Z,135
2018-05-07T10:43:31.410Z,130
2018-05-07T10:45:32.850Z,130
2018-05-07T10:47:34.294Z,130
2018-05-07T10:49:35.733Z,125
2018-05-07T10:51:37.174Z,125
2018-05-07T10:53:38.616Z,125
2018-05-07T10:55:40.059Z,120
2018-05-07T10:57:41.503Z,120
2018-05-07T10:59:42.943Z,120
2018-05-07T11:01:44.406Z,120
2018-05-07T11:03:45.850Z,115
2018-05-07T11:05:47.293Z,115
2018-05-07T11:07:48.736Z,115
2018-05-07T11:09:50.187Z,115
2018-05-07T11:11:51.681Z,115
2018-05-07T11:13:53.169Z,115
2018-05-07T11:15:54.597Z,110
2018-05-07T11:17:56.044Z,110
2018-05-07T11:19:57.485Z,110
2018-05-07T11:21:58.927Z,110
2018-05-07T11:24:00.369Z,110
2018-05-07T11:26:01.814Z,110
2018-05-07T11:28:03.257Z,110
2018-05-07T11:30:04.704Z,110
2018-05-07T11:32:06.150Z,105
2018-05-07T11:34:07.592Z,105
2018-05-07T11:36:09.032Z,105
2018-05-07T11:38:10.477Z,105
2018-05-07T11:40:11.921Z,105
2018-05-07T11:42:13.363Z,105
2018-05-07T11:44:14.812Z,105
2018-05-07T11:46:16.253Z,105
2018-05-07T11:48:17.694Z,100
2018-05-07T11:50:19.144Z,100
2018-05-07T11:52:20.582Z,100
2018-05-07T11:54:22.025Z,100
2018-05-07T11:56:23.473Z,100
2018-05-07T11:58:24.932Z,100
2018-05-07T12:00:26.365Z,95
2018-05-07T12:02:27.830Z,95
2018-05-07T12:04:29.276Z,95
2018-05-07T12:06:30.718Z,95
2018-05-07T12:08:32.211Z,95
2018-05-07T12:10:33.609Z,95
2018-05-07T12:12:35.053Z,95
2018-05-07T12:14:36.581Z,95
2018-05-07T12:16:38.027Z,105
2018-05-07T12:18:39.469Z,95
2018-05-07T12:20:40.909Z,95
2018-05-07T12:22:42.345Z,95
2018-05-07T12:24:43.790Z,95
2018-05-07T12:26:45.236Z,95
2018-05-07T12:28:46.682Z,95
2018-05-07T12:30:48.124Z,95
2018-05-07T12:32:49.576Z,95
2018-05-07T12:34:51.015Z,95
2018-05-07T12:36:52.457Z,95
2018-05-07T12:38:53.907Z,95
2018-05-07T12:40:55.352Z,90
2018-05-07T12:42:56.796Z,90
2018-05-07T12:44:58.249Z,90
2018-05-07T12:46:59.689Z,90
2018-05-07T12:49:01.133Z,90
2018-05-07T12:51:02.574Z,90
2018-05-07T12:53:04.016Z,90
2018-05-07T12:55:05.460Z,90
2018-05-07T12:57:06.902Z,90
2018-05-07T12:59:08.361Z,90
2018-05-07T13:01:09.792Z,90
2018-05-07T13:03:11.238Z,90
2018-05-07T13:05:12.685Z,85
2018-05-07T13:07:14.130Z,85
2018-05-07T13:09:15.575Z,85
2018-05-07T13:11:17.019Z,85
2018-05-07T13:13:18.466Z,85
2018-05-07T13:15:19.906Z,85
2018-05-07T13:17:21.354Z,85
2018-05-07T13:19:22.798Z,85
2018-05-07T13:21:24.243Z,85
2018-05-07T13:23:25.685Z,85
2018-05-07T13:25:27.129Z,80
2018-05-07T13:27:28.575Z,85
2018-05-07T13:29:30.021Z,80
2018-05-07T13:31:31.462Z,80
2018-05-07T13:33:32.906Z,80
2018-05-07T13:35:34.349Z,80
2018-05-07T13:37:35.790Z,80
2018-05-07T13:39:37.234Z,80
2018-05-07T13:41:38.677Z,80
2018-05-07T13:43:40.120Z,80
2018-05-07T13:45:41.618Z,80
2018-05-07T13:47:43.007Z,80
2018-05-07T13:49:44.909Z,80
2018-05-07T13:51:46.294Z,80
2018-05-07T13:53:47.732Z,85
2018-05-07T13:55:49.179Z,80
2018-05-07T13:57:50.617Z,80
2018-05-07T13:59:52.062Z,80
2018-05-07T14:01:53.504Z,80
2018-05-07T14:03:54.982Z,80
2018-05-07T14:05:56.391Z,80
2018-05-07T14:07:57.845Z,80
2018-05-07T14:09:59.304Z,80
2018-05-07T14:12:00.749Z,75
2018-05-07T14:14:02.191Z,75
2018-05-07T14:16:03.635Z,75
2018-05-07T14:18:05.077Z,75
2018-05-07T14:20:06.524Z,75
2018-05-07T14:22:07.965Z,75
2018-05-07T14:24:09.492Z,75
2018-05-07T14:26:11.011Z,75
2018-05-07T14:28:12.384Z,70
2018-05-07T14:30:13.859Z,70
2018-05-07T14:32:15.331Z,70
2018-05-07T14:34:16.932Z,70
2018-05-07T14:36:18.735Z,70
2018-05-07T14:38:20.386Z,70
2018-05-07T14:40:22.008Z,70
2018-05-07T14:42:23.781Z,70
2018-05-07T14:44:25.732Z,70
2018-05-07T14:46:27.281Z,70
2018-05-07T14:48:29.102Z,70
2018-05-07T14:50:30.653Z,70
2018-05-07T14:52:32.421Z,70
2018-05-07T14:54:33.968Z,65
2018-05-07T14:56:35.718Z,65
2018-05-07T14:58:37.266Z,65
2018-05-07T15:00:38.708Z,65
2018-05-07T15:02:40.234Z,65
2018-05-07T15:04:41.677Z,65
2018-05-07T15:06:43.302Z,60
2018-05-07T15:08:44.731Z,60
2018-05-07T15:10:46.177Z,60
2018-05-07T15:12:47.617Z,60
2018-05-07T15:14:49.061Z,60
2018-05-07T15:16:50.511Z,60
2018-05-07T15:18:51.954Z,60
2018-05-07T15:20:53.470Z,60
2018-05-07T15:22:54.944Z,60
2018-05-07T15:24:56.422Z,60
2018-05-07T15:26:57.866Z,60
2018-05-07T15:28:59.308Z,55
2018-05-07T15:31:00.755Z,55
2018-05-07T15:33:02.196Z,55
2018-05-07T15:35:03.632Z,55
2018-05-07T15:37:05.080Z,55
2018-05-07T15:39:06.530Z,50
2018-05-07T15:41:07.961Z,50
2018-05-07T15:43:09.409Z,50
2018-05-07T15:45:11.107Z,50
2018-05-07T15:47:12.645Z,45
2018-05-07T15:49:14.139Z,45
2018-05-07T15:51:15.599Z,45
2018-05-07T15:53:17.113Z,45
2018-05-07T15:55:18.638Z,45
2018-05-07T15:57:20.144Z,45
2018-05-07T15:59:21.644Z,45
2018-05-07T16:01:23.166Z,45
2018-05-07T16:03:24.722Z,45
2018-05-07T16:05:26.185Z,45
2018-05-07T16:07:27.879Z,45
2018-05-07T16:09:29.361Z,45
2018-05-07T16:11:30.923Z,45
2018-05-07T16:13:32.484Z,45
2018-05-07T16:15:34.061Z,45
2018-05-07T16:17:35.586Z,40
2018-05-07T16:19:37.183Z,40
2018-05-07T16:21:38.782Z,40
2018-05-07T16:23:40.323Z,40
2018-05-07T16:25:41.914Z,40
2018-05-07T16:27:43.627Z,40
2018-05-07T16:29:45.210Z,40
2018-05-07T16:31:46.760Z,35
2018-05-07T16:33:48.569Z,35
2018-05-07T16:35:50.061Z,35
2018-05-07T16:37:51.605Z,35
2018-05-07T16:39:53.179Z,35
2018-05-07T16:41:55.645Z,35
2018-05-07T16:43:57.548Z,35
2018-05-07T16:45:59.387Z,30
2018-05-07T16:48:00.871Z,30
2018-05-07T16:50:02.370Z,30
2018-05-07T16:52:03.879Z,30
2018-05-07T16:54:05.473Z,30
2018-05-07T16:56:07.012Z,30
2018-05-07T16:58:08.570Z,30
2018-05-07T17:00:10.098Z,30
2018-05-07T17:02:11.643Z,30
2018-05-07T17:04:13.130Z,30
2018-05-07T17:06:14.759Z,30
2018-05-07T17:08:16.396Z,30
2018-05-07T17:10:17.868Z,30
2018-05-07T17:12:19.413Z,25
2018-05-07T17:14:21.002Z,25
2018-05-07T17:16:22.858Z,25
2018-05-07T17:18:24.295Z,25
2018-05-07T17:20:25.745Z,25
2018-05-07T17:22:27.195Z,25
2018-05-07T17:24:28.619Z,20
2018-05-07T17:26:30.062Z,20
2018-05-07T17:28:31.507Z,20
2018-05-07T17:30:32.941Z,20
2018-05-07T17:32:34.383Z,20
2018-05-07T17:34:35.822Z,20
2018-05-07T17:36:37.266Z,20
2018-05-07T17:38:38.699Z,20
2018-05-07T17:40:40.165Z,20
2018-05-07T17:42:41.584Z,20
2018-05-07T17:44:43.021Z,20
2018-05-07T17:46:44.471Z,20
2018-05-07T17:48:45.912Z,20
2018-05-07T17:50:47.361Z,15
2018-05-07T17:52:48.816Z,15
2018-05-07T17:54:50.292Z,15
2018-05-07T17:56:51.721Z,15
2018-05-07T17:58:53.175Z,15
2018-05-07T18:00:54.645Z,15
2018-05-07T18:02:56.123Z,15
2018-05-07T18:04:57.664Z,10
2018-05-07T18:06:59.183Z,10
2018-05-07T18:09:00.623Z,10
2018-05-07T18:11:02.073Z,10
2018-05-07T18:13:03.506Z,10
2018-05-07T18:15:04.946Z,10
2018-05-07T18:17:06.415Z,10
2018-05-07T18:19:08.116Z,5
2018-05-07T18:21:09.481Z,5
2018-05-07T18:23:11.110Z,5
2018-05-07T18:25:12.432Z,5
2018-05-07T18:27:13.953Z,5
2018-05-07T18:29:15.417Z,5
2018-05-07T18:31:57.933Z,5
2018-05-07T18:33:59.748Z,5
2018-05-07T18:36:01.902Z,5
2018-05-07T18:38:03.549Z,5
2018-05-07T18:40:05.398Z,0
2018-05-07T18:42:07.153Z,0
2018-05-07T18:44:08.648Z,0
2018-05-07T18:46:10.081Z,0
2018-05-07T18:48:12.612Z,0
2018-05-07T18:50:14.027Z,0
2018-05-07T18:52:16.409Z,0
2018-05-07T18:54:17.925Z,0
2018-05-07T18:56:19.767Z,0
2018-05-07T18:58:21.390Z,0
2018-05-07T19:00:23.169Z,0
2018-05-07T19:02:24.678Z,0
2018-05-07T19:04:26.150Z,0
2018-05-07T19:06:27.590Z,0
2018-05-07T19:08:29.018Z,0
2018-05-07T19:10:30.512Z,0
2018-05-07T19:12:31.942Z,0
2018-05-07T19:14:33.375Z,0
2018-05-07T19:16:34.805Z,0
2018-05-07T19:18:36.247Z,0
2018-05-07T19:20:37.677Z,0
2018-05-07T19:22:39.117Z,0
2018-05-07T19:24:40.570Z,0
2018-05-07T19:26:42.003Z,0
2018-05-07T19:28:43.431Z,0
2018-05-07T19:30:44.868Z,0
2018-05-07T19:32:46.303Z,0
2018-05-07T19:34:47.735Z,0
2018-05-07T19:36:49.165Z,0
2018-05-07T19:38:50.597Z,0
2018-05-07T19:40:52.031Z,0
2018-05-07T19:42:53.460Z,0
2018-05-07T19:44:54.888Z,0
2018-05-07T19:46:56.325Z,0
2018-05-07T19:48:57.750Z,0
2018-05-07T19:50:59.182Z,0
2018-05-07T19:53:00.615Z,0
2018-05-07T19:55:02.045Z,0
2018-05-07T19:57:03.475Z,0
2018-05-07T19:59:04.905Z,0
2018-05-07T20:01:06.335Z,0
2018-05-07T20:03:07.766Z,0
2018-05-07T20:05:09.195Z,0
2018-05-07T20:07:10.629Z,0
2018-05-07T20:09:12.055Z,0
2018-05-07T20:11:13.484Z,0
2018-05-07T20:13:14.916Z,0
2018-05-07T20:15:16.346Z,0
2018-05-07T20:17:17.780Z,0
2018-05-07T20:19:19.207Z,0
2018-05-07T20:21:20.636Z,0
2018-05-07T20:23:22.076Z,0
2018-05-07T20:25:23.499Z,0
2018-05-07T20:27:24.937Z,0
2018-05-07T20:29:26.363Z,0
2018-05-07T20:31:27.793Z,0
2018-05-07T20:33:29.318Z,0
2018-05-07T20:35:30.754Z,0
2018-05-07T20:37:32.184Z,0
2018-05-07T20:39:33.610Z,0
2018-05-07T20:41:35.039Z,0
2018-05-07T20:43:36.470Z,0
2018-05-07T20:45:37.897Z,0
2018-05-07T20:47:39.328Z,0
2018-05-07T20:49:40.761Z,0
2018-05-07T20:51:42.189Z,0
2018-05-07T20:53:43.619Z,0
2018-05-07T20:55:45.050Z,0
2018-05-07T20:57:46.555Z,0
2018-05-07T20:59:48.049Z,0
2018-05-07T21:01:49.488Z,0
2018-05-07T21:03:50.928Z,0
2018-05-07T21:05:52.345Z,0
2018-05-07T21:07:53.776Z,0
2018-05-07T21:09:55.212Z,0
2018-05-07T21:11:56.646Z,0
2018-05-07T21:13:58.139Z,0
2018-05-07T21:15:59.572Z,0
2018-05-07T21:18:01.009Z,0
2018-05-07T21:20:02.467Z,0
2018-05-07T21:22:03.894Z,0
2018-05-07T21:24:05.325Z,0
2018-05-07T21:26:06.749Z,0
2018-05-07T21:28:08.188Z,0
2018-05-07T21:30:10.212Z,0
2018-05-07T21:32:11.612Z,0
2018-05-07T21:34:13.035Z,0
2018-05-07T21:36:14.464Z,0
2018-05-07T21:38:15.914Z,0
2018-05-07T21:40:17.406Z,0
2018-05-07T21:42:18.975Z,0
2018-05-07T21:44:20.426Z,0
2018-05-07T21:46:21.882Z,0
2018-05-07T21:48:23.392Z,0
2018-05-07T21:50:24.900Z,0
2018-05-07T21:52:26.369Z,0
2018-05-07T21:54:27.825Z,0
2018-05-07T21:56:29.335Z,0
2018-05-07T21:58:30.768Z,0
2018-05-07T22:00:32.193Z,0
2018-05-07T22:02:33.641Z,0
2018-05-07T22:04:35.108Z,0
2018-05-07T22:06:36.647Z,0
2018-05-07T22:08:38.149Z,0
2018-05-07T22:10:39.601Z,0
2018-05-07T22:12:41.031Z,0
2018-05-07T22:14:42.462Z,0
2018-05-07T22:16:43.893Z,0
2018-05-07T22:18:45.321Z,0
2018-05-07T22:20:46.762Z,0
2018-05-07T22:22:48.188Z,0
2018-05-07T22:24:49.618Z,0
2018-05-07T22:26:51.046Z,0
2018-05-07T22:28:52.477Z,0
2018-05-07T22:30:53.921Z,0
2018-05-07T22:32:55.399Z,0
2018-05-07T22:34:56.817Z,0
2018-05-07T22:36:58.251Z,0
2018-05-07T22:38:59.693Z,0
2018-05-07T22:41:01.171Z,0
2018-05-07T22:43:02.662Z,0
2018-05-07T22:45:04.131Z,0
2018-05-07T22:47:05.590Z,0
2018-05-07T22:49:07.047Z,0
2018-05-07T22:51:08.487Z,0
2018-05-07T22:53:09.968Z,0
2018-05-07T22:55:11.433Z,0
2018-05-07T22:57:12.901Z,0
2018-05-07T22:59:14.409Z,0
2018-05-07T23:01:15.865Z,0
2018-05-07T23:03:17.386Z,0
2018-05-07T23:05:19.048Z,0
2018-05-07T23:07:20.541Z,0
2018-05-07T23:09:21.973Z,0
2018-05-07T23:11:23.398Z,0
2018-05-07T23:13:24.825Z,0
2018-05-07T23:15:26.250Z,0
2018-05-07T23:17:27.681Z,0
2018-05-07T23:19:29.102Z,0
2018-05-07T23:21:30.535Z,0
2018-05-07T23:23:31.956Z,0
2018-05-07T23:25:33.378Z,0
2018-05-07T23:27:34.823Z,0
2018-05-07T23:29:36.252Z,0
2018-05-07T23:31:37.681Z,0
2018-05-07T23:33:39.103Z,0
2018-05-07T23:35:40.556Z,0
2018-05-07T23:37:41.979Z,0
2018-05-07T23:39:43.462Z,0
2018-05-07T23:41:44.879Z,0
2018-05-07T23:43:46.306Z,0
2018-05-07T23:45:47.732Z,0
2018-05-07T23:47:49.153Z,0
2018-05-07T23:49:50.577Z,0
2018-05-07T23:51:52.006Z,0
2018-05-07T23:53:53.430Z,0
2018-05-07T23:55:54.862Z,0
2018-05-07T23:57:56.349Z,0
